createdAt,value
2023-12-20T07:43:16.736Z,1.18
2023-12-20T07:43:49.694Z,2.45
2023-12-20T07:44:20.881Z,2.45
2023-12-20T07:44:53.601Z,3.63
2023-12-20T07:45:26.560Z,3.63
2023-12-20T07:45:57.900Z,3.63
2023-12-20T07:46:28.791Z,4.89
2023-12-20T07:47:01.749Z,7.34
2023-12-20T07:47:32.778Z,7.34
2023-12-20T07:48:05.679Z,6.08
2023-12-20T07:48:36.724Z,7.34
2023-12-20T07:49:09.838Z,7.34
2023-12-20T07:49:40.851Z,8.52
2023-12-20T07:50:13.862Z,9.79
2023-12-20T07:50:44.656Z,8.52
2023-12-20T07:51:19.225Z,8.52
2023-12-20T07:51:49.202Z,8.52
2023-12-20T07:52:23.677Z,7.34
2023-12-20T07:52:53.801Z,4.89
2023-12-20T07:53:26.332Z,4.89
2023-12-20T07:53:56.754Z,4.89
2023-12-20T07:54:31.525Z,4.89
2023-12-20T07:55:01.551Z,7.34
2023-12-20T07:55:34.173Z,8.52
2023-12-20T07:56:05.845Z,12.23
2023-12-20T07:56:44.039Z,17.13
2023-12-20T07:57:10.431Z,19.57
2023-12-20T07:57:41.056Z,17.13
2023-12-20T07:58:15.505Z,12.23
2023-12-20T07:58:51.803Z,9.79
2023-12-20T07:59:25.515Z,7.34
2023-12-20T07:59:49.017Z,4.89
2023-12-20T08:00:23.425Z,4.89
2023-12-20T08:00:53.932Z,3.63
2023-12-20T08:01:25.951Z,3.63
2023-12-20T08:01:57.703Z,3.63
2023-12-20T08:02:30.085Z,4.89
2023-12-20T08:03:01.813Z,4.89
2023-12-20T08:03:34.924Z,4.89
2023-12-20T08:04:05.049Z,4.89
2023-12-20T08:04:38.116Z,4.89
2023-12-20T08:05:09.508Z,3.63
2023-12-20T08:05:45.662Z,3.63
2023-12-20T08:06:13.632Z,3.63
2023-12-20T08:06:45.830Z,4.89
2023-12-20T08:07:17.617Z,4.89
2023-12-20T08:07:51.861Z,3.63
2023-12-20T08:08:22.375Z,4.89
2023-12-20T08:09:02.179Z,7.34
2023-12-20T08:09:26.204Z,8.52
2023-12-20T08:09:58.776Z,9.79
2023-12-20T08:10:30.146Z,9.79
2023-12-20T08:11:02.725Z,10.97
2023-12-20T08:11:34.350Z,9.79
2023-12-20T08:12:05.910Z,8.52
2023-12-20T08:12:37.444Z,8.52
2023-12-20T08:13:10.063Z,8.52
2023-12-20T08:13:40.936Z,7.34
2023-12-20T08:14:13.657Z,8.52
2023-12-20T08:14:44.895Z,12.23
2023-12-20T08:15:19.336Z,10.97
2023-12-20T08:15:49.096Z,9.79
2023-12-20T08:16:21.967Z,8.52
2023-12-20T08:16:53.018Z,7.34
2023-12-20T08:17:26.100Z,8.52
2023-12-20T08:17:57.231Z,8.52
2023-12-20T08:18:29.806Z,8.52
2023-12-20T08:19:01.263Z,7.34
2023-12-20T08:19:41.622Z,7.34
2023-12-20T08:20:05.571Z,7.34
2023-12-20T08:20:40.684Z,7.34
2023-12-20T08:21:09.657Z,8.52
2023-12-20T08:21:40.605Z,8.52
2023-12-20T08:22:13.584Z,8.52
2023-12-20T08:22:44.790Z,8.52
2023-12-20T08:23:17.602Z,8.52
2023-12-20T08:23:48.831Z,8.52
2023-12-20T08:24:24.393Z,8.52
2023-12-20T08:24:52.725Z,8.52
2023-12-20T08:25:28.951Z,10.97
2023-12-20T08:25:57.893Z,12.23
2023-12-20T08:26:30.035Z,13.42
2023-12-20T08:27:00.770Z,12.23
2023-12-20T08:27:33.571Z,12.23
2023-12-20T08:28:05.549Z,14.68
2023-12-20T08:28:40.008Z,15.86
2023-12-20T08:29:09.886Z,17.13
2023-12-20T08:29:41.927Z,17.13
2023-12-20T08:30:15.013Z,19.57
2023-12-20T08:30:46.470Z,18.31
2023-12-20T08:31:16.813Z,15.86
2023-12-20T08:31:50.487Z,14.68
2023-12-20T08:32:21.355Z,15.86
2023-12-20T08:32:54.740Z,15.86
2023-12-20T08:33:25.054Z,18.31
2023-12-20T08:33:58.333Z,20.76
2023-12-20T08:34:29.217Z,22.02
2023-12-20T08:35:02.708Z,24.47
2023-12-20T08:35:33.156Z,25.65
2023-12-20T08:36:05.830Z,30.54
2023-12-20T08:36:37.061Z,39.15
2023-12-20T08:37:16.713Z,46.49
2023-12-20T08:37:41.191Z,45.22
2023-12-20T08:38:13.248Z,48.93
2023-12-20T08:38:46.747Z,51.38
2023-12-20T08:39:17.061Z,56.27
2023-12-20T08:39:49.781Z,58.72
2023-12-20T08:40:21.649Z,75.85
2023-12-20T08:40:53.514Z,58.72
2023-12-20T08:41:24.696Z,56.27
2023-12-20T08:41:58.442Z,56.27
2023-12-20T08:42:28.688Z,51.38
2023-12-20T08:43:02.267Z,41.59
2023-12-20T08:43:32.753Z,37.88
2023-12-20T08:44:05.486Z,37.88
2023-12-20T08:44:36.801Z,37.88
2023-12-20T08:45:11.781Z,37.88
2023-12-20T08:45:40.800Z,37.88
2023-12-20T08:46:13.867Z,39.15
2023-12-20T08:46:45.100Z,42.78
2023-12-20T08:47:18.038Z,42.78
2023-12-20T08:47:49.495Z,44.04
2023-12-20T08:48:35.005Z,42.78
2023-12-20T08:48:53.072Z,40.33
2023-12-20T08:49:25.167Z,41.59
2023-12-20T08:49:58.201Z,42.78
2023-12-20T08:50:29.925Z,39.15
2023-12-20T08:51:02.031Z,35.44
2023-12-20T08:51:33.094Z,35.44
2023-12-20T08:52:06.135Z,37.88
2023-12-20T08:52:37.000Z,40.33
2023-12-20T08:53:10.170Z,45.22
2023-12-20T08:53:41.209Z,44.04
2023-12-20T08:54:13.970Z,40.33
2023-12-20T08:54:45.697Z,41.59
2023-12-20T08:55:18.380Z,41.59
2023-12-20T08:55:49.097Z,41.59
2023-12-20T08:56:21.896Z,41.59
2023-12-20T08:56:53.307Z,44.04
2023-12-20T08:57:25.878Z,42.78
2023-12-20T08:57:57.042Z,41.59
2023-12-20T08:58:29.731Z,40.33
2023-12-20T08:59:01.246Z,39.15
2023-12-20T08:59:34.120Z,41.59
2023-12-20T09:00:08.910Z,41.59
2023-12-20T09:00:22.039Z,44.04
2023-12-20T09:00:53.691Z,45.22
2023-12-20T09:01:25.116Z,41.59
2023-12-20T09:01:57.234Z,40.33
2023-12-20T09:02:29.117Z,39.15
2023-12-20T09:03:04.200Z,39.15
2023-12-20T09:03:33.121Z,39.15
2023-12-20T09:04:06.792Z,42.78
2023-12-20T09:04:37.032Z,44.04
2023-12-20T09:05:10.448Z,44.04
2023-12-20T09:05:40.992Z,40.33
2023-12-20T09:06:13.823Z,39.15
2023-12-20T09:06:45.328Z,37.88
2023-12-20T09:07:20.796Z,37.88
2023-12-20T09:07:49.546Z,36.70
2023-12-20T09:08:21.877Z,36.70
2023-12-20T09:08:52.984Z,36.70
2023-12-20T09:09:26.925Z,37.88
2023-12-20T09:09:58.131Z,37.88
2023-12-20T09:10:30.937Z,37.88
2023-12-20T09:11:01.328Z,37.88
2023-12-20T09:11:34.088Z,37.88
2023-12-20T09:12:05.427Z,37.88
2023-12-20T09:12:43.446Z,36.70
2023-12-20T09:13:09.276Z,37.88
2023-12-20T09:13:41.205Z,37.88
2023-12-20T09:14:13.902Z,37.88
2023-12-20T09:14:44.956Z,37.88
2023-12-20T09:15:20.687Z,37.88
2023-12-20T09:15:49.845Z,37.88
2023-12-20T09:16:23.531Z,37.88
2023-12-20T09:16:53.820Z,39.15
2023-12-20T09:17:26.845Z,37.88
2023-12-20T09:17:57.972Z,39.15
2023-12-20T09:18:31.733Z,40.33
2023-12-20T09:19:02.012Z,41.59
2023-12-20T09:19:34.826Z,42.78
2023-12-20T09:20:06.734Z,46.49
2023-12-20T09:20:41.358Z,46.49
2023-12-20T09:21:09.691Z,47.67
2023-12-20T09:21:45.683Z,48.93
2023-12-20T09:22:14.007Z,51.38
2023-12-20T09:22:47.582Z,52.57
2023-12-20T09:23:17.744Z,62.35
2023-12-20T09:23:50.853Z,70.96
2023-12-20T09:24:21.573Z,74.59
2023-12-20T09:24:56.538Z,78.30
2023-12-20T09:25:26.279Z,84.37
2023-12-20T09:25:59.773Z,85.64
2023-12-20T09:26:31.047Z,89.27
2023-12-20T09:27:03.440Z,83.19
2023-12-20T09:27:33.806Z,85.64
2023-12-20T09:28:06.790Z,78.30
2023-12-20T09:28:37.626Z,83.19
2023-12-20T09:29:10.480Z,83.19
2023-12-20T09:29:41.836Z,96.61
2023-12-20T09:30:26.393Z,86.82
2023-12-20T09:30:45.924Z,97.87
2023-12-20T09:31:19.098Z,97.87
2023-12-20T09:31:49.871Z,99.05
2023-12-20T09:32:24.515Z,100.32
2023-12-20T09:32:54.879Z,99.05
2023-12-20T09:33:26.343Z,99.05
2023-12-20T09:33:57.505Z,99.05
2023-12-20T09:34:30.553Z,100.32
2023-12-20T09:35:02.369Z,100.32
2023-12-20T09:35:34.911Z,99.05
2023-12-20T09:36:05.557Z,99.05
2023-12-20T09:36:38.285Z,99.05
2023-12-20T09:37:09.552Z,97.87
2023-12-20T09:37:41.947Z,97.87
2023-12-20T09:38:13.371Z,96.61
2023-12-20T09:38:48.017Z,97.87
2023-12-20T09:39:17.344Z,96.61
2023-12-20T09:39:52.488Z,96.61
2023-12-20T09:40:22.250Z,96.61
2023-12-20T09:41:00.557Z,97.87
2023-12-20T09:41:25.184Z,97.87
2023-12-20T09:41:57.494Z,97.87
2023-12-20T09:42:37.044Z,97.87
2023-12-20T09:43:01.334Z,97.87
2023-12-20T09:43:34.450Z,99.05
2023-12-20T09:44:06.532Z,97.87
2023-12-20T09:44:40.565Z,99.05
2023-12-20T09:45:10.776Z,100.32
2023-12-20T09:46:00.662Z,101.50
2023-12-20T09:46:31.376Z,101.50
2023-12-20T09:47:02.002Z,102.76
2023-12-20T09:47:33.513Z,103.95
2023-12-20T09:48:05.443Z,105.21
2023-12-20T09:48:38.220Z,105.21
2023-12-20T09:49:14.868Z,106.39
2023-12-20T09:49:46.360Z,106.39
2023-12-20T09:50:15.391Z,107.66
2023-12-20T09:50:49.706Z,108.84
2023-12-20T09:51:33.658Z,108.84
2023-12-20T09:52:05.723Z,110.10
2023-12-20T09:52:38.118Z,111.29
2023-12-20T09:53:01.024Z,111.29
2023-12-20T09:53:25.225Z,113.73
2023-12-20T09:53:57.344Z,118.63
2023-12-20T09:54:33.480Z,124.78
2023-12-20T09:55:02.578Z,90.53
2023-12-20T09:55:34.277Z,84.37
2023-12-20T09:56:05.319Z,79.48
2023-12-20T09:56:38.473Z,111.29
2023-12-20T09:57:11.532Z,107.66
2023-12-20T09:57:42.104Z,88.08
2023-12-20T09:58:13.436Z,84.37
2023-12-20T09:58:49.049Z,89.27
2023-12-20T09:59:17.420Z,95.42
2023-12-20T09:59:55.937Z,99.05
2023-12-20T10:00:24.420Z,110.10
2023-12-20T10:00:53.594Z,112.55
2023-12-20T10:01:26.128Z,106.39
2023-12-20T10:01:58.437Z,99.05
2023-12-20T10:02:30.183Z,91.71
2023-12-20T10:03:01.426Z,85.64
2023-12-20T10:03:34.145Z,83.19
2023-12-20T10:04:11.099Z,81.93
2023-12-20T10:04:38.616Z,81.93
2023-12-20T10:05:10.000Z,81.93
2023-12-20T10:05:42.327Z,84.37
2023-12-20T10:06:13.358Z,88.08
2023-12-20T10:06:47.197Z,90.53
2023-12-20T10:07:17.749Z,91.71
2023-12-20T10:07:51.065Z,90.53
2023-12-20T10:08:21.358Z,89.27
2023-12-20T10:08:54.018Z,85.64
2023-12-20T10:09:25.818Z,80.74
2023-12-20T10:09:58.055Z,75.85
2023-12-20T10:10:38.122Z,72.14
2023-12-20T10:11:04.284Z,70.96
2023-12-20T10:11:33.492Z,72.14
2023-12-20T10:12:06.012Z,79.48
2023-12-20T10:12:37.265Z,85.64
2023-12-20T10:13:10.214Z,90.53
2023-12-20T10:13:41.301Z,92.98
2023-12-20T10:14:14.157Z,91.71
2023-12-20T10:14:45.905Z,85.64
2023-12-20T10:15:20.576Z,79.48
2023-12-20T10:15:50.688Z,79.48
2023-12-20T10:16:23.993Z,81.93
2023-12-20T10:16:53.674Z,85.64
2023-12-20T10:17:26.321Z,88.08
2023-12-20T10:18:00.532Z,94.16
2023-12-20T10:18:37.945Z,95.42
2023-12-20T10:19:02.871Z,94.16
2023-12-20T10:19:34.883Z,95.42
2023-12-20T10:20:06.934Z,95.42
2023-12-20T10:20:39.292Z,97.87
2023-12-20T10:21:10.119Z,99.05
2023-12-20T10:21:43.415Z,97.87
2023-12-20T10:22:14.471Z,91.71
2023-12-20T10:22:47.311Z,86.82
2023-12-20T10:23:18.292Z,84.37
2023-12-20T10:23:50.587Z,80.74
2023-12-20T10:24:23.188Z,78.30
2023-12-20T10:24:54.840Z,77.03
2023-12-20T10:25:26.450Z,73.40
2023-12-20T10:25:59.718Z,73.40
2023-12-20T10:26:30.248Z,70.96
2023-12-20T10:27:02.276Z,69.69
2023-12-20T10:27:33.099Z,68.51
2023-12-20T10:28:06.288Z,68.51
2023-12-20T10:28:37.088Z,66.06
2023-12-20T10:29:10.228Z,66.06
2023-12-20T10:29:41.403Z,66.06
2023-12-20T10:30:16.372Z,64.80
2023-12-20T10:30:45.585Z,64.80
2023-12-20T10:31:18.438Z,64.80
2023-12-20T10:31:49.792Z,63.61
2023-12-20T10:32:22.316Z,63.61
2023-12-20T10:32:53.141Z,63.61
2023-12-20T10:33:25.906Z,63.61
2023-12-20T10:33:57.193Z,62.35
2023-12-20T10:34:31.270Z,63.61
2023-12-20T10:35:02.074Z,64.80
2023-12-20T10:35:34.249Z,67.25
2023-12-20T10:36:05.248Z,68.51
2023-12-20T10:36:53.466Z,66.06
2023-12-20T10:37:25.419Z,63.61
2023-12-20T10:37:57.320Z,59.91
2023-12-20T10:38:29.194Z,56.27
2023-12-20T10:39:01.474Z,53.83
2023-12-20T10:39:39.730Z,48.93
2023-12-20T10:40:06.153Z,45.22
2023-12-20T10:40:37.549Z,40.33
2023-12-20T10:41:10.286Z,37.88
2023-12-20T10:41:41.301Z,37.88
2023-12-20T10:42:14.001Z,40.33
2023-12-20T10:42:45.314Z,44.04
2023-12-20T10:43:18.378Z,45.22
2023-12-20T10:43:49.295Z,47.67
2023-12-20T10:44:27.852Z,52.57
2023-12-20T10:44:53.231Z,56.27
2023-12-20T10:45:26.783Z,57.46
2023-12-20T10:46:13.263Z,57.46
2023-12-20T10:46:45.389Z,53.83
2023-12-20T10:47:17.238Z,46.49
2023-12-20T10:47:50.527Z,37.88
2023-12-20T10:48:21.707Z,32.99
2023-12-20T10:48:54.258Z,34.25
2023-12-20T10:49:25.413Z,40.33
2023-12-20T10:49:59.367Z,47.67
2023-12-20T10:50:30.462Z,52.57
2023-12-20T10:51:02.158Z,58.72
2023-12-20T10:51:33.428Z,66.06
2023-12-20T10:52:06.481Z,70.96
2023-12-20T10:52:37.283Z,72.14
2023-12-20T10:53:19.052Z,70.96
2023-12-20T10:53:41.225Z,68.51
2023-12-20T10:54:13.403Z,66.06
2023-12-20T10:54:45.236Z,62.35
2023-12-20T10:55:18.005Z,58.72
2023-12-20T10:55:49.241Z,55.01
2023-12-20T10:56:21.185Z,52.57
2023-12-20T10:56:54.240Z,51.38
2023-12-20T10:57:25.258Z,51.38
2023-12-20T10:57:58.447Z,52.57
2023-12-20T10:58:29.202Z,56.27
2023-12-20T10:59:02.567Z,58.72
2023-12-20T10:59:33.416Z,61.17
2023-12-20T11:00:10.369Z,63.61
2023-12-20T11:00:37.608Z,64.80
2023-12-20T11:01:10.307Z,64.80
2023-12-20T11:01:41.235Z,67.25
2023-12-20T11:02:14.314Z,73.40
2023-12-20T11:02:45.316Z,73.40
2023-12-20T11:03:18.079Z,72.14
2023-12-20T11:03:49.377Z,70.96
2023-12-20T11:04:22.196Z,66.06
2023-12-20T11:04:53.411Z,59.91
2023-12-20T11:05:26.245Z,55.01
2023-12-20T11:05:57.276Z,52.57
2023-12-20T11:06:30.503Z,55.01
2023-12-20T11:07:01.428Z,58.72
2023-12-20T11:07:35.192Z,63.61
2023-12-20T11:08:05.429Z,66.06
2023-12-20T11:08:39.312Z,70.96
2023-12-20T11:09:09.085Z,72.14
2023-12-20T11:09:42.122Z,68.51
2023-12-20T11:10:13.799Z,63.61
2023-12-20T11:10:46.162Z,52.57
2023-12-20T11:11:17.248Z,45.22
2023-12-20T11:11:50.271Z,42.78
2023-12-20T11:12:21.240Z,41.59
2023-12-20T11:12:54.288Z,41.59
2023-12-20T11:13:25.354Z,44.04
2023-12-20T11:13:58.162Z,47.67
2023-12-20T11:14:29.425Z,51.38
2023-12-20T11:15:05.745Z,53.83
2023-12-20T11:15:33.578Z,53.83
2023-12-20T11:16:07.017Z,57.46
2023-12-20T11:16:44.782Z,59.91
2023-12-20T11:17:10.377Z,67.25
2023-12-20T11:17:41.284Z,73.40
2023-12-20T11:18:18.736Z,75.85
2023-12-20T11:18:45.476Z,78.30
2023-12-20T11:19:17.296Z,79.48
2023-12-20T11:19:49.304Z,81.93
2023-12-20T11:20:21.918Z,85.64
2023-12-20T11:20:54.005Z,86.82
2023-12-20T11:21:25.411Z,85.64
2023-12-20T11:21:57.976Z,85.64
2023-12-20T11:22:29.459Z,85.64
2023-12-20T11:23:06.506Z,84.37
2023-12-20T11:23:33.421Z,85.64
2023-12-20T11:24:05.363Z,85.64
2023-12-20T11:24:38.059Z,84.37
2023-12-20T11:25:09.874Z,84.37
2023-12-20T11:25:57.433Z,80.74
2023-12-20T11:26:29.863Z,79.48
2023-12-20T11:27:01.257Z,73.40
2023-12-20T11:27:37.685Z,69.69
2023-12-20T11:28:05.493Z,61.17
2023-12-20T11:28:38.388Z,57.46
2023-12-20T11:29:09.439Z,57.46
2023-12-20T11:29:42.280Z,61.17
2023-12-20T11:30:15.091Z,63.61
2023-12-20T11:30:46.304Z,68.51
2023-12-20T11:31:17.348Z,72.14
2023-12-20T11:31:50.802Z,73.40
2023-12-20T11:32:21.661Z,75.85
2023-12-20T11:32:54.923Z,75.85
2023-12-20T11:33:28.588Z,77.03
2023-12-20T11:33:57.978Z,79.48
2023-12-20T11:34:29.800Z,83.19
2023-12-20T11:35:05.589Z,90.53
2023-12-20T11:35:33.592Z,97.87
2023-12-20T11:36:11.606Z,102.76
2023-12-20T11:36:37.420Z,100.32
2023-12-20T11:37:09.414Z,96.61
2023-12-20T11:37:42.000Z,90.53
2023-12-20T11:38:13.811Z,85.64
2023-12-20T11:38:46.090Z,75.85
2023-12-20T11:39:17.282Z,66.06
2023-12-20T11:39:49.804Z,57.46
2023-12-20T11:40:21.701Z,50.12
2023-12-20T11:41:09.327Z,41.59
2023-12-20T11:41:41.001Z,39.15
2023-12-20T11:42:13.109Z,39.15
2023-12-20T11:42:46.038Z,37.88
2023-12-20T11:43:17.235Z,37.88
2023-12-20T11:44:05.170Z,35.44
2023-12-20T11:44:37.105Z,34.25
2023-12-20T11:45:11.269Z,35.44
2023-12-20T11:45:42.658Z,41.59
2023-12-20T11:46:13.050Z,42.78
2023-12-20T11:46:46.133Z,41.59
2023-12-20T11:47:17.128Z,34.25
2023-12-20T11:47:50.695Z,32.99
2023-12-20T11:48:21.208Z,32.99
2023-12-20T11:48:54.193Z,29.36
2023-12-20T11:49:25.338Z,25.65
2023-12-20T11:49:58.089Z,25.65
2023-12-20T11:50:29.924Z,26.91
2023-12-20T11:51:01.872Z,29.36
2023-12-20T11:51:33.161Z,29.36
2023-12-20T11:52:06.171Z,28.10
2023-12-20T11:52:37.056Z,28.10
2023-12-20T11:53:10.898Z,29.36
2023-12-20T11:53:41.142Z,30.54
2023-12-20T11:54:15.283Z,30.54
2023-12-20T11:54:45.192Z,31.81
2023-12-20T11:55:19.606Z,34.25
2023-12-20T11:55:49.304Z,37.88
2023-12-20T11:56:21.835Z,42.78
2023-12-20T11:56:53.280Z,48.93
2023-12-20T11:57:26.415Z,55.01
2023-12-20T11:57:56.964Z,56.27
2023-12-20T11:58:31.168Z,57.46
2023-12-20T11:59:12.868Z,56.27
2023-12-20T11:59:34.107Z,57.46
2023-12-20T12:00:07.966Z,58.72
2023-12-20T12:00:21.991Z,58.72
2023-12-20T12:00:54.095Z,57.46
2023-12-20T12:01:25.277Z,52.57
2023-12-20T12:01:57.340Z,47.67
2023-12-20T12:02:29.350Z,42.78
2023-12-20T12:03:01.281Z,42.78
2023-12-20T12:03:33.128Z,39.15
2023-12-20T12:04:05.255Z,39.15
2023-12-20T12:04:37.071Z,41.59
2023-12-20T12:05:10.670Z,46.49
2023-12-20T12:05:41.376Z,52.57
2023-12-20T12:06:13.892Z,57.46
2023-12-20T12:06:45.654Z,57.46
2023-12-20T12:07:20.150Z,61.17
2023-12-20T12:07:49.319Z,62.35
2023-12-20T12:08:22.134Z,66.06
2023-12-20T12:08:53.280Z,74.59
2023-12-20T12:09:25.955Z,90.53
2023-12-20T12:09:57.403Z,95.42
2023-12-20T12:10:31.469Z,97.87
2023-12-20T12:11:01.478Z,99.05
2023-12-20T12:11:34.680Z,102.76
2023-12-20T12:12:05.243Z,103.95
2023-12-20T12:12:53.979Z,124.78
2023-12-20T12:13:25.751Z,130.86
2023-12-20T12:13:57.667Z,182.24
2023-12-20T12:14:29.665Z,179.79
2023-12-20T12:15:06.623Z,129.68
2023-12-20T12:15:33.363Z,90.53
2023-12-20T12:16:07.432Z,88.08
2023-12-20T12:16:37.118Z,92.98
2023-12-20T12:17:09.922Z,105.21
2023-12-20T12:17:41.149Z,106.39
2023-12-20T12:18:14.297Z,111.29
2023-12-20T12:18:45.262Z,108.84
2023-12-20T12:19:18.265Z,103.95
2023-12-20T12:19:49.283Z,100.32
2023-12-20T12:20:22.480Z,99.05
2023-12-20T12:20:53.352Z,97.87
2023-12-20T12:21:32.388Z,96.61
2023-12-20T12:21:56.976Z,96.61
2023-12-20T12:22:29.847Z,96.61
2023-12-20T12:23:01.348Z,97.87
2023-12-20T12:23:34.148Z,97.87
2023-12-20T12:24:05.154Z,96.61
2023-12-20T12:24:21.220Z,97.87
2023-12-20T12:24:53.136Z,97.87
2023-12-20T12:25:25.864Z,97.87
2023-12-20T12:25:57.297Z,100.32
2023-12-20T12:26:30.416Z,103.95
2023-12-20T12:27:01.368Z,108.84
2023-12-20T12:27:33.279Z,115.00
2023-12-20T12:28:05.348Z,117.44
2023-12-20T12:28:37.284Z,117.44
2023-12-20T12:29:10.330Z,119.89
2023-12-20T12:29:41.347Z,118.63
2023-12-20T12:30:18.863Z,115.00
2023-12-20T12:30:50.344Z,108.84
2023-12-20T12:31:18.202Z,107.66
2023-12-20T12:31:49.631Z,110.10
2023-12-20T12:32:22.267Z,117.44
2023-12-20T12:32:53.747Z,123.52
2023-12-20T12:33:26.502Z,119.89
2023-12-20T12:33:57.596Z,113.73
2023-12-20T12:34:31.139Z,106.39
2023-12-20T12:35:02.085Z,102.76
2023-12-20T12:35:34.623Z,150.43
2023-12-20T12:36:05.320Z,102.76
2023-12-20T12:36:39.235Z,103.95
2023-12-20T12:37:09.320Z,96.61
2023-12-20T12:37:43.469Z,139.46
2023-12-20T12:38:13.629Z,127.23
2023-12-20T12:38:50.148Z,84.37
2023-12-20T12:39:16.888Z,97.87
2023-12-20T12:39:48.862Z,89.27
2023-12-20T12:40:22.151Z,77.03
2023-12-20T12:40:53.045Z,68.51
2023-12-20T12:41:25.688Z,75.85
2023-12-20T12:41:56.747Z,56.27
2023-12-20T12:42:29.996Z,94.16
2023-12-20T12:43:00.909Z,75.85
2023-12-20T12:43:35.892Z,97.87
2023-12-20T12:44:11.590Z,70.96
2023-12-20T12:44:37.886Z,75.85
2023-12-20T12:45:10.492Z,79.48
2023-12-20T12:45:41.798Z,78.30
2023-12-20T12:46:12.967Z,73.40
2023-12-20T12:46:45.695Z,70.96
2023-12-20T12:47:16.788Z,72.14
2023-12-20T12:47:50.455Z,69.69
2023-12-20T12:48:21.300Z,66.06
2023-12-20T12:48:53.764Z,69.69
2023-12-20T12:49:24.955Z,77.03
2023-12-20T12:49:57.795Z,79.48
2023-12-20T12:50:29.214Z,83.19
2023-12-20T12:51:01.765Z,88.08
2023-12-20T12:51:33.131Z,94.16
2023-12-20T12:52:06.069Z,99.05
2023-12-20T12:52:36.955Z,106.39
2023-12-20T12:53:10.604Z,102.76
2023-12-20T12:53:40.946Z,95.42
2023-12-20T12:54:13.642Z,89.27
2023-12-20T12:54:44.895Z,85.64
2023-12-20T12:55:18.233Z,81.93
2023-12-20T12:55:48.822Z,79.48
2023-12-20T12:56:21.694Z,77.03
2023-12-20T12:56:53.005Z,72.14
2023-12-20T12:57:25.692Z,64.80
2023-12-20T12:57:56.863Z,57.46
2023-12-20T12:58:29.681Z,53.83
2023-12-20T12:59:00.905Z,51.38
2023-12-20T12:59:33.717Z,51.38
2023-12-20T13:00:08.144Z,51.38
2023-12-20T13:00:38.726Z,52.57
2023-12-20T13:01:08.911Z,57.46
2023-12-20T13:01:44.495Z,73.40
2023-12-20T13:02:12.882Z,72.14
2023-12-20T13:02:50.740Z,74.59
2023-12-20T13:03:16.836Z,68.51
2023-12-20T13:03:48.969Z,81.93
2023-12-20T13:04:20.969Z,84.37
2023-12-20T13:04:53.024Z,118.63
2023-12-20T13:05:25.370Z,86.82
2023-12-20T13:05:56.823Z,79.48
2023-12-20T13:06:28.935Z,95.42
2023-12-20T13:07:00.940Z,113.73
2023-12-20T13:07:34.799Z,88.08
2023-12-20T13:08:04.843Z,80.74
2023-12-20T13:08:37.673Z,69.69
2023-12-20T13:09:08.704Z,67.25
2023-12-20T13:09:41.970Z,68.51
2023-12-20T13:10:13.289Z,72.14
2023-12-20T13:10:45.645Z,72.14
2023-12-20T13:11:16.814Z,68.51
2023-12-20T13:11:49.653Z,62.35
2023-12-20T13:12:20.825Z,61.17
2023-12-20T13:13:08.922Z,66.06
2023-12-20T13:13:40.777Z,72.14
2023-12-20T13:14:12.777Z,75.85
2023-12-20T13:14:44.887Z,78.30
2023-12-20T13:15:18.190Z,79.48
2023-12-20T13:15:52.561Z,79.48
2023-12-20T13:16:21.012Z,79.48
2023-12-20T13:16:53.623Z,80.74
2023-12-20T13:17:24.759Z,81.93
2023-12-20T13:17:57.872Z,81.93
2023-12-20T13:18:29.077Z,83.19
2023-12-20T13:19:01.746Z,90.53
2023-12-20T13:19:33.442Z,133.31
2023-12-20T13:20:07.746Z,133.31
2023-12-20T13:20:37.454Z,129.68
2023-12-20T13:21:15.541Z,124.78
2023-12-20T13:21:40.906Z,117.44
2023-12-20T13:22:12.937Z,78.30
2023-12-20T13:22:45.757Z,92.98
2023-12-20T13:23:16.906Z,69.69
2023-12-20T13:23:49.771Z,92.98
2023-12-20T13:24:21.025Z,86.82
2023-12-20T13:24:53.663Z,74.59
2023-12-20T13:25:25.334Z,73.40
2023-12-20T13:25:57.813Z,72.14
2023-12-20T13:26:29.145Z,66.06
2023-12-20T13:27:01.778Z,58.72
2023-12-20T13:27:33.774Z,55.01
2023-12-20T13:28:05.889Z,51.38
2023-12-20T13:28:36.924Z,47.67
2023-12-20T13:28:53.409Z,45.22
2023-12-20T13:29:24.857Z,44.04
2023-12-20T13:29:56.832Z,42.78
2023-12-20T13:30:30.407Z,45.22
2023-12-20T13:31:01.051Z,44.04
2023-12-20T13:31:34.196Z,44.04
2023-12-20T13:32:05.137Z,42.78
2023-12-20T13:32:43.471Z,42.78
2023-12-20T13:33:08.941Z,41.59
2023-12-20T13:33:41.336Z,39.15
2023-12-20T13:34:20.932Z,39.15
2023-12-20T13:34:45.533Z,41.59
2023-12-20T13:35:17.426Z,41.59
2023-12-20T13:35:48.939Z,42.78
2023-12-20T13:36:20.908Z,42.78
2023-12-20T13:36:53.876Z,40.33
2023-12-20T13:37:24.946Z,39.15
2023-12-20T13:38:01.024Z,35.44
2023-12-20T13:38:28.856Z,32.99
2023-12-20T13:39:01.805Z,30.54
2023-12-20T13:39:32.946Z,30.54
2023-12-20T13:40:06.205Z,29.36
2023-12-20T13:40:37.022Z,29.36
2023-12-20T13:41:24.948Z,29.36
2023-12-20T13:41:59.506Z,28.10
2023-12-20T13:42:29.025Z,28.10
2023-12-20T13:43:00.862Z,28.10
2023-12-20T13:43:32.855Z,26.91
2023-12-20T13:44:05.029Z,26.91
2023-12-20T13:44:36.781Z,26.91
2023-12-20T13:45:16.972Z,25.65
2023-12-20T13:45:41.037Z,25.65
2023-12-20T13:46:13.014Z,24.47
2023-12-20T13:46:44.870Z,25.65
2023-12-20T13:47:16.800Z,26.91
2023-12-20T13:47:49.362Z,28.10
2023-12-20T13:48:20.870Z,29.36
2023-12-20T13:48:53.642Z,31.81
2023-12-20T13:49:25.147Z,30.54
2023-12-20T13:49:57.880Z,30.54
2023-12-20T13:50:29.303Z,30.54
2023-12-20T13:51:07.144Z,30.54
2023-12-20T13:51:32.992Z,31.81
2023-12-20T13:52:06.008Z,31.81
2023-12-20T13:52:39.708Z,31.81
2023-12-20T13:53:08.909Z,30.54
2023-12-20T13:53:41.765Z,29.36
2023-12-20T13:54:12.804Z,28.10
2023-12-20T13:54:46.666Z,28.10
2023-12-20T13:55:17.296Z,28.10
2023-12-20T13:55:49.719Z,28.10
2023-12-20T13:56:20.807Z,26.91
2023-12-20T13:57:05.577Z,25.65
2023-12-20T13:57:37.632Z,25.65
2023-12-20T13:57:58.872Z,28.10
2023-12-20T13:58:28.835Z,29.36
2023-12-20T13:59:03.554Z,29.36
2023-12-20T13:59:32.735Z,29.36
2023-12-20T14:00:07.632Z,26.91
2023-12-20T14:00:36.951Z,24.47
2023-12-20T14:01:09.785Z,23.20
2023-12-20T14:01:40.856Z,20.76
2023-12-20T14:02:17.288Z,18.31
2023-12-20T14:02:44.938Z,17.13
2023-12-20T14:03:16.729Z,15.86
2023-12-20T14:03:49.580Z,15.86
2023-12-20T14:04:40.616Z,17.13
2023-12-20T14:04:53.795Z,17.13
2023-12-20T14:05:28.301Z,15.86
2023-12-20T14:05:57.674Z,17.13
2023-12-20T14:06:29.078Z,15.86
2023-12-20T14:07:16.900Z,14.68
2023-12-20T14:07:49.240Z,12.23
2023-12-20T14:08:20.837Z,13.42
2023-12-20T14:08:54.585Z,14.68
2023-12-20T14:09:25.004Z,14.68
2023-12-20T14:09:57.763Z,12.23
2023-12-20T14:10:29.758Z,12.23
2023-12-20T14:11:01.890Z,10.97
2023-12-20T14:11:32.785Z,9.79
2023-12-20T14:12:05.659Z,12.23
2023-12-20T14:12:36.859Z,12.23
2023-12-20T14:13:09.907Z,12.23
2023-12-20T14:13:40.856Z,12.23
2023-12-20T14:14:13.771Z,9.79
2023-12-20T14:14:44.881Z,9.79
2023-12-20T14:15:25.923Z,10.97
2023-12-20T14:15:48.957Z,12.23
2023-12-20T14:16:20.890Z,14.68
2023-12-20T14:16:52.964Z,14.68
2023-12-20T14:17:24.818Z,12.23
2023-12-20T14:17:58.598Z,10.97
2023-12-20T14:18:28.865Z,12.23
2023-12-20T14:19:01.733Z,13.42
2023-12-20T14:19:33.003Z,13.42
2023-12-20T14:20:06.824Z,15.86
2023-12-20T14:20:36.808Z,17.13
2023-12-20T14:21:09.730Z,18.31
2023-12-20T14:21:40.916Z,17.13
2023-12-20T14:22:14.800Z,15.86
2023-12-20T14:22:44.849Z,15.86
2023-12-20T14:23:19.678Z,15.86
2023-12-20T14:23:50.191Z,17.13
2023-12-20T14:24:22.659Z,17.13
2023-12-20T14:24:52.899Z,17.13
2023-12-20T14:25:27.247Z,17.13
2023-12-20T14:25:56.959Z,15.86
2023-12-20T14:26:29.786Z,15.86
2023-12-20T14:27:01.017Z,15.86
2023-12-20T14:27:33.816Z,15.86
2023-12-20T14:28:04.883Z,17.13
2023-12-20T14:28:37.846Z,15.86
2023-12-20T14:29:09.015Z,17.13
2023-12-20T14:29:44.229Z,15.86
2023-12-20T14:30:14.180Z,15.86
2023-12-20T14:30:45.745Z,14.68
2023-12-20T14:31:16.929Z,14.68
2023-12-20T14:31:49.661Z,14.68
2023-12-20T14:32:20.890Z,15.86
2023-12-20T14:32:56.023Z,14.68
2023-12-20T14:33:25.029Z,15.86
2023-12-20T14:33:58.765Z,15.86
2023-12-20T14:34:28.920Z,15.86
2023-12-20T14:35:05.152Z,13.42
2023-12-20T14:35:32.803Z,14.68
2023-12-20T14:36:05.511Z,15.86
2023-12-20T14:36:37.055Z,15.86